Terminal Aerodrome Forecast
Issued by NWS Wakefield, VA

Home | Current Version | Previous Version | Text Only | Print | Product List | Glossary On
Versions: 1 2 3 4 5 6 7 8 9 10 11 12 13
000
FTUS41 KAKQ 280500
TAFRIC
TAF
KRIC 280540Z 2806/2906 20006KT P6SM BKN100
     FM281500 23008KT P6SM -RA SCT040 OVC070
     FM281800 25009KT 4SM -RA BR OVC030
     FM290000 36005KT 3SM -RA BR OVC020=

USA.gov is the U.S. government's official web portal to all federal, state and local government web resources and services.